sensor_id;sensor_type;location;lat;lon;timestamp;pressure;altitude;pressure_sealevel;temperature;humidity
37824;BME280;23667;43.246;26.576;2022-11-11T00:01:39;100593.69;;;5.28;100.00
37824;BME280;23667;43.246;26.576;2022-11-11T00:04:05;100588.25;;;5.00;100.00
37824;BME280;23667;43.246;26.576;2022-11-11T00:06:30;100593.44;;;5.05;100.00
37824;BME280;23667;43.246;26.576;2022-11-11T00:08:55;100590.03;;;5.06;100.00
37824;BME280;23667;43.246;26.576;2022-11-11T00:11:20;100591.78;;;5.10;100.00
37824;BME280;23667;43.246;26.576;2022-11-11T00:13:46;100593.53;;;5.14;100.00
37824;BME280;23667;43.246;26.576;2022-11-11T00:16:15;100591.97;;;5.32;100.00
37824;BME280;23667;43.246;26.576;2022-11-11T00:18:41;100587.63;;;5.24;100.00
37824;BME280;23667;43.246;26.576;2022-11-11T00:21:26;100587.72;;;5.37;100.00
37824;BME280;23667;43.246;26.576;2022-11-11T00:24:21;100591.94;;;5.27;100.00
37824;BME280;23667;43.246;26.576;2022-11-11T00:27:05;100588.34;;;5.11;100.00
37824;BME280;23667;43.246;26.576;2022-11-11T00:29:31;100590.03;;;5.08;100.00
37824;BME280;23667;43.246;26.576;2022-11-11T00:31:56;100589.25;;;5.15;100.00
37824;BME280;23667;43.246;26.576;2022-11-11T00:34:40;100586.50;;;4.99;100.00
37824;BME280;23667;43.246;26.576;2022-11-11T00:37:25;100588.09;;;4.85;100.00
37824;BME280;23667;43.246;26.576;2022-11-11T00:39:50;100594.13;;;4.86;100.00
37824;BME280;23667;43.246;26.576;2022-11-11T00:42:16;100576.09;;;4.93;100.00
37824;BME280;23667;43.246;26.576;2022-11-11T00:44:41;100580.19;;;4.71;100.00
37824;BME280;23667;43.246;26.576;2022-11-11T00:47:07;100580.50;;;5.00;100.00
37824;BME280;23667;43.246;26.576;2022-11-11T00:49:50;100575.22;;;4.91;100.00
37824;BME280;23667;43.246;26.576;2022-11-11T00:52:34;100579.41;;;4.80;100.00
37824;BME280;23667;43.246;26.576;2022-11-11T00:54:59;100576.69;;;4.68;100.00
37824;BME280;23667;43.246;26.576;2022-11-11T00:57:25;100577.34;;;4.51;100.00
37824;BME280;23667;43.246;26.576;2022-11-11T00:59:50;100577.28;;;4.44;100.00
37824;BME280;23667;43.246;26.576;2022-11-11T01:02:15;100581.44;;;4.34;100.00
37824;BME280;23667;43.246;26.576;2022-11-11T01:04:40;100580.31;;;4.14;100.00
37824;BME280;23667;43.246;26.576;2022-11-11T01:07:06;100577.91;;;4.27;100.00
37824;BME280;23667;43.246;26.576;2022-11-11T01:09:33;100579.94;;;4.50;100.00
37824;BME280;23667;43.246;26.576;2022-11-11T01:11:59;100585.97;;;4.52;100.00
37824;BME280;23667;43.246;26.576;2022-11-11T01:14:24;100585.16;;;4.56;100.00
37824;BME280;23667;43.246;26.576;2022-11-11T01:16:49;100583.03;;;4.26;100.00
37824;BME280;23667;43.246;26.576;2022-11-11T01:19:15;100583.00;;;4.23;100.00
37824;BME280;23667;43.246;26.576;2022-11-11T01:21:40;100581.41;;;4.31;100.00
37824;BME280;23667;43.246;26.576;2022-11-11T01:24:05;100580.81;;;4.53;100.00
37824;BME280;23667;43.246;26.576;2022-11-11T01:26:30;100580.91;;;4.61;100.00
37824;BME280;23667;43.246;26.576;2022-11-11T01:28:56;100586.13;;;4.67;100.00
37824;BME280;23667;43.246;26.576;2022-11-11T01:31:22;100582.06;;;4.86;100.00
37824;BME280;23667;43.246;26.576;2022-11-11T01:33:48;100580.38;;;4.90;100.00
37824;BME280;23667;43.246;26.576;2022-11-11T01:36:18;100578.34;;;4.64;100.00
37824;BME280;23667;43.246;26.576;2022-11-11T01:38:47;100577.56;;;4.68;100.00
37824;BME280;23667;43.246;26.576;2022-11-11T01:41:13;100580.41;;;4.91;100.00
37824;BME280;23667;43.246;26.576;2022-11-11T01:46:36;100575.19;;;4.90;100.00
37824;BME280;23667;43.246;26.576;2022-11-11T01:54:16;100579.44;;;4.85;100.00
37824;BME280;23667;43.246;26.576;2022-11-11T01:56:44;100577.78;;;4.88;100.00
37824;BME280;23667;43.246;26.576;2022-11-11T01:59:12;100576.94;;;4.94;100.00
37824;BME280;23667;43.246;26.576;2022-11-11T02:01:39;100577.69;;;4.81;100.00
37824;BME280;23667;43.246;26.576;2022-11-11T02:04:05;100579.47;;;4.86;100.00
37824;BME280;23667;43.246;26.576;2022-11-11T02:06:50;100577.75;;;4.87;100.00
37824;BME280;23667;43.246;26.576;2022-11-11T02:09:17;100575.81;;;4.67;100.00
37824;BME280;23667;43.246;26.576;2022-11-11T02:11:43;100581.69;;;4.54;100.00
37824;BME280;23667;43.246;26.576;2022-11-11T02:14:28;100585.31;;;4.68;100.00
37824;BME280;23667;43.246;26.576;2022-11-11T02:17:07;100580.34;;;4.87;100.00
37824;BME280;23667;43.246;26.576;2022-11-11T02:19:39;100582.78;;;4.74;100.00
37824;BME280;23667;43.246;26.576;2022-11-11T02:22:07;100580.41;;;4.91;100.00
37824;BME280;23667;43.246;26.576;2022-11-11T02:24:35;100576.91;;;4.89;100.00
37824;BME280;23667;43.246;26.576;2022-11-11T02:27:02;100584.75;;;4.95;100.00
37824;BME280;23667;43.246;26.576;2022-11-11T02:29:27;100582.22;;;5.01;100.00
37824;BME280;23667;43.246;26.576;2022-11-11T02:31:54;100586.50;;;4.98;100.00
37824;BME280;23667;43.246;26.576;2022-11-11T02:34:19;100580.19;;;4.71;100.00
37824;BME280;23667;43.246;26.576;2022-11-11T02:36:44;100585.41;;;4.77;100.00
37824;BME280;23667;43.246;26.576;2022-11-11T02:39:10;100586.63;;;5.13;100.00
37824;BME280;23667;43.246;26.576;2022-11-11T02:41:35;100585.84;;;5.20;100.00
37824;BME280;23667;43.246;26.576;2022-11-11T02:44:19;100580.56;;;5.11;100.00
37824;BME280;23667;43.246;26.576;2022-11-11T02:46:44;100589.03;;;4.95;100.00
37824;BME280;23667;43.246;26.576;2022-11-11T02:49:10;100578.72;;;4.98;100.00
37824;BME280;23667;43.246;26.576;2022-11-11T02:51:35;100579.69;;;5.06;100.00
37824;BME280;23667;43.246;26.576;2022-11-11T02:54:00;100581.34;;;5.01;100.00
37824;BME280;23667;43.246;26.576;2022-11-11T02:56:26;100588.06;;;4.84;100.00
37824;BME280;23667;43.246;26.576;2022-11-11T02:59:10;100587.38;;;5.00;100.00
37824;BME280;23667;43.246;26.576;2022-11-11T03:01:35;100587.41;;;5.03;100.00
37824;BME280;23667;43.246;26.576;2022-11-11T03:04:01;100581.28;;;4.95;100.00
37824;BME280;23667;43.246;26.576;2022-11-11T03:06:26;100591.78;;;5.10;100.00
37824;BME280;23667;43.246;26.576;2022-11-11T03:08:51;100589.22;;;5.13;100.00
37824;BME280;23667;43.246;26.576;2022-11-11T03:11:17;100588.91;;;4.84;100.00
37824;BME280;23667;43.246;26.576;2022-11-11T03:13:52;100594.22;;;4.95;100.00
37824;BME280;23667;43.246;26.576;2022-11-11T03:16:17;100597.81;;;5.11;100.00
37824;BME280;23667;43.246;26.576;2022-11-11T03:19:01;100595.22;;;5.09;100.00
37824;BME280;23667;43.246;26.576;2022-11-11T03:21:26;100590.97;;;5.16;100.00
37824;BME280;23667;43.246;26.576;2022-11-11T03:23:52;100597.97;;;5.28;100.00
37824;BME280;23667;43.246;26.576;2022-11-11T03:26:17;100601.41;;;5.25;100.00
37824;BME280;23667;43.246;26.576;2022-11-11T03:28:43;100593.72;;;5.33;100.00
37824;BME280;23667;43.246;26.576;2022-11-11T03:31:08;100596.41;;;5.43;100.00
37824;BME280;23667;43.246;26.576;2022-11-11T03:33:34;100602.56;;;5.56;100.00
37824;BME280;23667;43.246;26.576;2022-11-11T03:35:59;100599.72;;;5.32;100.00
37824;BME280;23667;43.246;26.576;2022-11-11T03:38:24;100598.13;;;5.43;100.00
37824;BME280;23667;43.246;26.576;2022-11-11T03:40:50;100602.53;;;5.55;100.00
37824;BME280;23667;43.246;26.576;2022-11-11T03:43:17;100606.81;;;5.53;100.00
37824;BME280;23667;43.246;26.576;2022-11-11T03:45:43;100597.19;;;5.36;100.00
37824;BME280;23667;43.246;26.576;2022-11-11T03:48:08;100593.69;;;5.31;100.00
37824;BME280;23667;43.246;26.576;2022-11-11T03:50:34;100591.94;;;5.27;100.00
37824;BME280;23667;43.246;26.576;2022-11-11T03:52:59;100586.91;;;5.44;100.00
37824;BME280;23667;43.246;26.576;2022-11-11T03:55:25;100592.88;;;5.34;100.00
37824;BME280;23667;43.246;26.576;2022-11-11T03:57:50;100586.06;;;5.45;100.00
37824;BME280;23667;43.246;26.576;2022-11-11T04:00:16;100596.41;;;5.45;100.00
37824;BME280;23667;43.246;26.576;2022-11-11T04:02:43;100589.53;;;5.50;100.00
37824;BME280;23667;43.246;26.576;2022-11-11T04:05:27;100591.19;;;5.40;100.00
37824;BME280;23667;43.246;26.576;2022-11-11T04:08:11;100587.09;;;5.65;100.00
37824;BME280;23667;43.246;26.576;2022-11-11T04:10:56;100592.50;;;5.93;100.00
37824;BME280;23667;43.246;26.576;2022-11-11T04:13:22;100584.88;;;6.19;100.00
37824;BME280;23667;43.246;26.576;2022-11-11T04:16:06;100583.28;;;6.50;100.00
37824;BME280;23667;43.246;26.576;2022-11-11T04:18:32;100589.44;;;6.74;100.00
37824;BME280;23667;43.246;26.576;2022-11-11T04:21:16;100585.16;;;6.88;100.00
37824;BME280;23667;43.246;26.576;2022-11-11T04:24:00;100576.50;;;6.83;100.00
37824;BME280;23667;43.246;26.576;2022-11-11T04:26:25;100580.81;;;6.75;100.00
37824;BME280;23667;43.246;26.576;2022-11-11T04:28:51;100579.97;;;6.82;100.00
37824;BME280;23667;43.246;26.576;2022-11-11T04:31:34;100591.16;;;6.73;100.00
37824;BME280;23667;43.246;26.576;2022-11-11T04:33:59;100595.47;;;6.71;100.00
37824;BME280;23667;43.246;26.576;2022-11-11T04:36:25;100599.88;;;7.03;100.00
37824;BME280;23667;43.246;26.576;2022-11-11T04:38:50;100598.19;;;7.14;100.00
37824;BME280;23667;43.246;26.576;2022-11-11T04:41:36;100603.38;;;7.17;100.00
37824;BME280;23667;43.246;26.576;2022-11-11T04:44:02;100608.59;;;7.22;100.00
37824;BME280;23667;43.246;26.576;2022-11-11T04:46:46;100619.88;;;7.61;100.00
37824;BME280;23667;43.246;26.576;2022-11-11T04:49:11;100619.88;;;7.67;100.00
37824;BME280;23667;43.246;26.576;2022-11-11T04:51:37;100622.47;;;7.61;100.00
37824;BME280;23667;43.246;26.576;2022-11-11T04:54:21;100626.78;;;7.62;100.00
37824;BME280;23667;43.246;26.576;2022-11-11T04:56:46;100632.00;;;7.66;100.00
37824;BME280;23667;43.246;26.576;2022-11-11T04:59:11;100637.16;;;7.74;100.00
37824;BME280;23667;43.246;26.576;2022-11-11T05:01:40;100642.34;;;7.95;100.00
37824;BME280;23667;43.246;26.576;2022-11-11T05:04:23;100638.88;;;8.04;100.00
37824;BME280;23667;43.246;26.576;2022-11-11T05:06:49;100629.31;;;8.41;100.00
37824;BME280;23667;43.246;26.576;2022-11-11T05:09:33;100632.78;;;8.28;100.00
37824;BME280;23667;43.246;26.576;2022-11-11T05:12:01;100631.03;;;8.47;100.00
37824;BME280;23667;43.246;26.576;2022-11-11T05:14:27;100640.56;;;8.45;100.00
37824;BME280;23667;43.246;26.576;2022-11-11T05:17:11;100649.19;;;8.64;100.00
37824;BME280;23667;43.246;26.576;2022-11-11T05:19:55;100644.72;;;8.94;100.00
37824;BME280;23667;43.246;26.576;2022-11-11T05:22:39;100641.28;;;8.85;100.00
37824;BME280;23667;43.246;26.576;2022-11-11T05:25:05;100634.28;;;9.00;100.00
37824;BME280;23667;43.246;26.576;2022-11-11T05:27:49;100635.91;;;9.18;100.00
37824;BME280;23667;43.246;26.576;2022-11-11T05:30:15;100640.22;;;9.23;100.00
37824;BME280;23667;43.246;26.576;2022-11-11T05:32:40;100647.22;;;9.15;100.00
37824;BME280;23667;43.246;26.576;2022-11-11T05:35:06;100646.47;;;8.92;100.00
37824;BME280;23667;43.246;26.576;2022-11-11T05:37:32;100647.22;;;9.15;100.00
37824;BME280;23667;43.246;26.576;2022-11-11T05:39:57;100647.09;;;9.35;100.00
37824;BME280;23667;43.246;26.576;2022-11-11T05:42:22;100654.00;;;9.41;100.00
37824;BME280;23667;43.246;26.576;2022-11-11T05:44:47;100653.88;;;9.59;100.00
37824;BME280;23667;43.246;26.576;2022-11-11T05:47:13;100657.25;;;9.72;100.00
37824;BME280;23667;43.246;26.576;2022-11-11T05:49:38;100664.94;;;9.84;100.00
37824;BME280;23667;43.246;26.576;2022-11-11T05:52:04;100658.75;;;9.99;100.00
37824;BME280;23667;43.246;26.576;2022-11-11T05:54:30;100666.66;;;9.91;100.00
37824;BME280;23667;43.246;26.576;2022-11-11T05:56:55;100663.97;;;10.00;100.00
37824;BME280;23667;43.246;26.576;2022-11-11T05:59:20;100665.63;;;10.09;100.00
37824;BME280;23667;43.246;26.576;2022-11-11T06:01:46;100663.91;;;10.07;100.00
37824;BME280;23667;43.246;26.576;2022-11-11T06:04:11;100667.59;;;9.81;100.00
37824;BME280;23667;43.246;26.576;2022-11-11T06:06:36;100675.38;;;9.86;100.00
37824;BME280;23667;43.246;26.576;2022-11-11T06:09:04;100675.28;;;9.95;100.00
37824;BME280;23667;43.246;26.576;2022-11-11T06:11:29;100675.19;;;10.07;100.00
37824;BME280;23667;43.246;26.576;2022-11-11T06:13:55;100679.50;;;10.08;100.00
37824;BME280;23667;43.246;26.576;2022-11-11T06:16:20;100682.97;;;10.10;100.00
37824;BME280;23667;43.246;26.576;2022-11-11T06:18:46;100691.69;;;10.08;100.00
37824;BME280;23667;43.246;26.576;2022-11-11T06:21:11;100685.66;;;10.01;100.00
37824;BME280;23667;43.246;26.576;2022-11-11T06:23:36;100691.22;;;9.56;100.00
37824;BME280;23667;43.246;26.576;2022-11-11T06:26:02;100698.28;;;9.38;100.00
37824;BME280;23667;43.246;26.576;2022-11-11T06:28:51;100699.06;;;9.50;100.00
37824;BME280;23667;43.246;26.576;2022-11-11T06:31:17;100707.63;;;9.71;100.00
37824;BME280;23667;43.246;26.576;2022-11-11T06:33:43;100698.09;;;9.65;100.00
37824;BME280;23667;43.246;26.576;2022-11-11T06:36:09;100704.13;;;9.72;100.00
37824;BME280;23667;43.246;26.576;2022-11-11T06:38:35;100705.13;;;9.55;100.00
37824;BME280;23667;43.246;26.576;2022-11-11T06:41:00;100710.47;;;9.29;100.00
37824;BME280;23667;43.246;26.576;2022-11-11T06:43:25;100715.75;;;9.14;100.00
37824;BME280;23667;43.246;26.576;2022-11-11T06:45:51;100733.97;;;9.17;100.00
37824;BME280;23667;43.246;26.576;2022-11-11T06:48:17;100727.84;;;9.21;100.00
37824;BME280;23667;43.246;26.576;2022-11-11T06:50:42;100727.00;;;9.18;100.00
37824;BME280;23667;43.246;26.576;2022-11-11T06:53:12;100727.03;;;9.10;100.00
37824;BME280;23667;43.246;26.576;2022-11-11T06:55:38;100728.72;;;9.23;100.00
37824;BME280;23667;43.246;26.576;2022-11-11T06:58:04;100727.78;;;9.33;100.00
37824;BME280;23667;43.246;26.576;2022-11-11T07:00:29;100733.03;;;9.27;100.00
37824;BME280;23667;43.246;26.576;2022-11-11T07:02:55;100732.13;;;9.38;100.00
37824;BME280;23667;43.246;26.576;2022-11-11T07:05:20;100730.28;;;9.55;100.00
37824;BME280;23667;43.246;26.576;2022-11-11T07:07:46;100728.56;;;9.52;100.00
37824;BME280;23667;43.246;26.576;2022-11-11T07:10:11;100728.38;;;9.80;100.00
37824;BME280;23667;43.246;26.576;2022-11-11T07:12:39;100726.44;;;10.05;100.00
37824;BME280;23667;43.246;26.576;2022-11-11T07:15:06;100717.75;;;10.08;100.00
37824;BME280;23667;43.246;26.576;2022-11-11T07:17:32;100728.22;;;10.03;100.00
37824;BME280;23667;43.246;26.576;2022-11-11T07:19:57;100721.22;;;10.10;100.00
37824;BME280;23667;43.246;26.576;2022-11-11T07:22:23;100718.31;;;10.43;100.00
37824;BME280;23667;43.246;26.576;2022-11-11T07:24:48;100728.66;;;10.54;100.00
37824;BME280;23667;43.246;26.576;2022-11-11T07:27:13;100721.56;;;10.67;100.00
37824;BME280;23667;43.246;26.576;2022-11-11T07:29:39;100716.16;;;10.84;100.00
37824;BME280;23667;43.246;26.576;2022-11-11T07:32:04;100719.44;;;11.01;100.00
37824;BME280;23667;43.246;26.576;2022-11-11T07:34:29;100716.38;;;11.35;100.00
37824;BME280;23667;43.246;26.576;2022-11-11T07:36:55;100714.28;;;11.63;100.00
37824;BME280;23667;43.246;26.576;2022-11-11T07:39:20;100711.38;;;11.80;100.00
37824;BME280;23667;43.246;26.576;2022-11-11T07:41:46;100710.56;;;11.78;100.00
37824;BME280;23667;43.246;26.576;2022-11-11T07:44:11;100713.94;;;11.83;100.00
37824;BME280;23667;43.246;26.576;2022-11-11T07:46:36;100721.28;;;12.17;100.00
37824;BME280;23667;43.246;26.576;2022-11-11T07:49:02;100718.13;;;11.96;100.00
37824;BME280;23667;43.246;26.576;2022-11-11T07:51:28;100728.19;;;12.22;100.00
37824;BME280;23667;43.246;26.576;2022-11-11T07:53:54;100723.13;;;12.12;100.00
37824;BME280;23667;43.246;26.576;2022-11-11T07:56:19;100724.41;;;11.86;100.00
37824;BME280;23667;43.246;26.576;2022-11-11T07:58:44;100726.19;;;11.79;100.00
37824;BME280;23667;43.246;26.576;2022-11-11T08:01:10;100718.41;;;11.78;100.00
37824;BME280;23667;43.246;26.576;2022-11-11T08:03:35;100726.09;;;11.90;100.00
37824;BME280;23667;43.246;26.576;2022-11-11T08:06:14;100732.00;;;12.01;100.00
37824;BME280;23667;43.246;26.576;2022-11-11T08:08:39;100718.13;;;11.96;100.00
37824;BME280;23667;43.246;26.576;2022-11-11T08:11:04;100724.31;;;11.92;100.00
37824;BME280;23667;43.246;26.576;2022-11-11T08:13:30;100730.16;;;12.08;100.00
37824;BME280;23667;43.246;26.576;2022-11-11T08:16:08;100733.47;;;12.19;100.00
37824;BME280;23667;43.246;26.576;2022-11-11T08:18:34;100723.91;;;12.15;100.00
37824;BME280;23667;43.246;26.576;2022-11-11T08:20:59;100724.97;;;12.03;100.00
37824;BME280;23667;43.246;26.576;2022-11-11T08:23:25;100736.84;;;11.69;100.00
37824;BME280;23667;43.246;26.576;2022-11-11T08:26:00;100749.59;;;11.24;100.00
37824;BME280;23667;43.246;26.576;2022-11-11T08:28:26;100753.69;;;11.46;100.00
37824;BME280;23667;43.246;26.576;2022-11-11T08:30:52;100752.78;;;11.47;100.00
37824;BME280;23667;43.246;26.576;2022-11-11T08:33:17;100756.97;;;11.60;100.00
37824;BME280;23667;43.246;26.576;2022-11-11T08:35:43;100750.41;;;11.29;100.00
37824;BME280;23667;43.246;26.576;2022-11-11T08:38:08;100758.28;;;11.27;100.00
37824;BME280;23667;43.246;26.576;2022-11-11T08:40:33;100769.59;;;11.26;100.00
37824;BME280;23667;43.246;26.576;2022-11-11T08:42:59;100762.94;;;11.04;100.00
37824;BME280;23667;43.246;26.576;2022-11-11T08:45:24;100771.66;;;11.01;100.00
37824;BME280;23667;43.246;26.576;2022-11-11T08:47:50;100770.41;;;11.31;100.00
37824;BME280;23667;43.246;26.576;2022-11-11T08:50:15;100770.41;;;11.33;100.00
37824;BME280;23667;43.246;26.576;2022-11-11T08:52:47;100779.00;;;11.41;100.00
37824;BME280;23667;43.246;26.576;2022-11-11T08:55:13;100785.94;;;11.44;100.00
37824;BME280;23667;43.246;26.576;2022-11-11T08:57:39;100783.84;;;11.01;100.00
37824;BME280;23667;43.246;26.576;2022-11-11T09:00:04;100785.56;;;11.03;100.00
37824;BME280;23667;43.246;26.576;2022-11-11T09:02:30;100787.44;;;10.89;100.00
37824;BME280;23667;43.246;26.576;2022-11-11T09:04:55;100790.94;;;10.85;100.00
37824;BME280;23667;43.246;26.576;2022-11-11T09:07:21;100798.00;;;10.80;100.00
37824;BME280;23667;43.246;26.576;2022-11-11T09:09:46;100791.56;;;11.08;100.00
37824;BME280;23667;43.246;26.576;2022-11-11T09:12:11;100781.13;;;11.08;100.00
37824;BME280;23667;43.246;26.576;2022-11-11T09:14:36;100782.22;;;10.87;100.00
37824;BME280;23667;43.246;26.576;2022-11-11T09:17:02;100784.88;;;10.86;100.00
37824;BME280;23667;43.246;26.576;2022-11-11T09:19:27;100784.66;;;11.04;100.00
37824;BME280;23667;43.246;26.576;2022-11-11T09:21:52;100780.38;;;10.99;100.00
37824;BME280;23667;43.246;26.576;2022-11-11T09:24:18;100789.16;;;10.91;100.00
37824;BME280;23667;43.246;26.576;2022-11-11T09:26:45;100784.91;;;10.83;100.00
37824;BME280;23667;43.246;26.576;2022-11-11T09:29:10;100798.09;;;10.66;100.00
37824;BME280;23667;43.246;26.576;2022-11-11T09:31:36;100799.09;;;10.54;100.00
37824;BME280;23667;43.246;26.576;2022-11-11T09:34:01;100802.97;;;9.93;100.00
37824;BME280;23667;43.246;26.576;2022-11-11T09:36:26;100805.69;;;9.79;100.00
37824;BME280;23667;43.246;26.576;2022-11-11T09:38:53;100803.22;;;9.50;100.00
37824;BME280;23667;43.246;26.576;2022-11-11T09:41:23;100812.81;;;9.31;100.00
37824;BME280;23667;43.246;26.576;2022-11-11T09:43:59;100811.94;;;9.37;100.00
37824;BME280;23667;43.246;26.576;2022-11-11T09:51:17;100824.09;;;9.37;100.00
37824;BME280;23667;43.246;26.576;2022-11-11T09:53:55;100817.94;;;9.59;100.00
37824;BME280;23667;43.246;26.576;2022-11-11T09:56:27;100812.78;;;9.47;100.00
37824;BME280;23667;43.246;26.576;2022-11-11T09:59:17;100815.34;;;9.51;100.00
37824;BME280;23667;43.246;26.576;2022-11-11T10:01:46;100811.00;;;9.55;100.00
37824;BME280;23667;43.246;26.576;2022-11-11T10:06:48;100811.00;;;9.55;100.00
37824;BME280;23667;43.246;26.576;2022-11-11T10:14:32;100814.41;;;9.66;100.00
37824;BME280;23667;43.246;26.576;2022-11-11T10:17:05;100816.16;;;9.70;100.00
37824;BME280;23667;43.246;26.576;2022-11-11T10:24:50;100814.50;;;9.55;100.00
37824;BME280;23667;43.246;26.576;2022-11-11T10:27:18;100815.31;;;9.62;100.00
37824;BME280;23667;43.246;26.576;2022-11-11T10:29:44;100815.41;;;9.47;100.00
37824;BME280;23667;43.246;26.576;2022-11-11T10:34:36;100817.06;;;9.57;100.00
37824;BME280;23667;43.246;26.576;2022-11-11T10:37:01;100814.41;;;9.66;100.00
37824;BME280;23667;43.246;26.576;2022-11-11T10:42:01;100814.41;;;9.71;100.00
37824;BME280;23667;43.246;26.576;2022-11-11T10:44:28;100815.25;;;9.73;100.00
37824;BME280;23667;43.246;26.576;2022-11-11T10:49:39;100813.63;;;9.49;100.00
37824;BME280;23667;43.246;26.576;2022-11-11T10:54:34;100814.44;;;9.63;100.00
37824;BME280;23667;43.246;26.576;2022-11-11T10:57:04;100817.09;;;9.51;100.00
37824;BME280;23667;43.246;26.576;2022-11-11T11:00:06;100821.34;;;9.76;100.00
37824;BME280;23667;43.246;26.576;2022-11-11T11:07:27;100823.13;;;9.62;100.00
37824;BME280;23667;43.246;26.576;2022-11-11T11:09:57;100824.00;;;9.60;100.00
37824;BME280;23667;43.246;26.576;2022-11-11T11:12:29;100820.53;;;9.59;100.00
37824;BME280;23667;43.246;26.576;2022-11-11T11:14:58;100816.22;;;9.49;100.00
37824;BME280;23667;43.246;26.576;2022-11-11T11:17:34;100834.34;;;9.75;100.00
37824;BME280;23667;43.246;26.576;2022-11-11T11:22:46;100820.56;;;9.54;100.00
37824;BME280;23667;43.246;26.576;2022-11-11T11:25:12;100823.22;;;9.41;100.00
37824;BME280;23667;43.246;26.576;2022-11-11T11:27:38;100821.38;;;9.61;100.00
37824;BME280;23667;43.246;26.576;2022-11-11T11:30:16;100822.16;;;9.82;100.00
37824;BME280;23667;43.246;26.576;2022-11-11T11:32:46;100822.97;;;9.93;100.00
37824;BME280;23667;43.246;26.576;2022-11-11T11:35:29;100822.03;;;10.01;100.00
37824;BME280;23667;43.246;26.576;2022-11-11T11:37:55;100815.81;;;10.22;100.00
37824;BME280;23667;43.246;26.576;2022-11-11T11:40:20;100817.59;;;10.14;100.00
37824;BME280;23667;43.246;26.576;2022-11-11T11:42:46;100819.25;;;10.35;100.00
37824;BME280;23667;43.246;26.576;2022-11-11T11:45:27;100819.25;;;10.35;100.00
37824;BME280;23667;43.246;26.576;2022-11-11T11:55:39;100818.50;;;10.13;100.00
37824;BME280;23667;43.246;26.576;2022-11-11T12:00:35;100815.00;;;10.16;100.00
37824;BME280;23667;43.246;26.576;2022-11-11T12:05:47;100817.63;;;10.13;100.00
37824;BME280;23667;43.246;26.576;2022-11-11T12:13:07;100822.09;;;9.97;100.00
37824;BME280;23667;43.246;26.576;2022-11-11T12:15:40;100820.28;;;10.02;100.00
37824;BME280;23667;43.246;26.576;2022-11-11T12:21:05;100810.59;;;10.29;100.00
37824;BME280;23667;43.246;26.576;2022-11-11T12:26:25;100818.53;;;10.02;100.00
37824;BME280;23667;43.246;26.576;2022-11-11T12:34:25;100812.38;;;10.14;100.00
37824;BME280;23667;43.246;26.576;2022-11-11T12:37:15;100819.25;;;10.35;100.00
37824;BME280;23667;43.246;26.576;2022-11-11T12:42:25;100819.06;;;10.55;100.00
37824;BME280;23667;43.246;26.576;2022-11-11T12:57:49;100813.44;;;10.97;100.00
37824;BME280;23667;43.246;26.576;2022-11-11T13:00:18;100815.16;;;10.99;100.00
37824;BME280;23667;43.246;26.576;2022-11-11T13:06:03;100815.16;;;10.99;100.00
37824;BME280;23667;43.246;26.576;2022-11-11T13:13:43;100810.06;;;10.85;100.00
37824;BME280;23667;43.246;26.576;2022-11-11T13:16:14;100817.78;;;11.01;100.00
37824;BME280;23667;43.246;26.576;2022-11-11T13:18:54;100818.78;;;10.86;100.00
37824;BME280;23667;43.246;26.576;2022-11-11T13:21:23;100818.19;;;10.59;100.00
37824;BME280;23667;43.246;26.576;2022-11-11T13:23:50;100816.41;;;10.63;100.00
37824;BME280;23667;43.246;26.576;2022-11-11T13:26:21;100814.63;;;10.66;100.00
37824;BME280;23667;43.246;26.576;2022-11-11T13:28:49;100820.00;;;10.48;100.00
37824;BME280;23667;43.246;26.576;2022-11-11T13:33:47;100823.41;;;10.56;100.00
37824;BME280;23667;43.246;26.576;2022-11-11T13:36:14;100829.50;;;10.55;100.00
37824;BME280;23667;43.246;26.576;2022-11-11T13:38:47;100826.84;;;10.60;100.00
37824;BME280;23667;43.246;26.576;2022-11-11T13:41:23;100831.97;;;10.70;100.00
37824;BME280;23667;43.246;26.576;2022-11-11T13:43:50;100829.41;;;10.66;100.00
37824;BME280;23667;43.246;26.576;2022-11-11T13:48:51;100830.81;;;11.01;100.00
37824;BME280;23667;43.246;26.576;2022-11-11T13:51:21;100829.09;;;10.97;100.00
37824;BME280;23667;43.246;26.576;2022-11-11T13:53:48;100829.28;;;10.78;100.00
37824;BME280;23667;43.246;26.576;2022-11-11T13:56:28;100833.59;;;10.84;100.00
37824;BME280;23667;43.246;26.576;2022-11-11T13:58:55;100832.63;;;10.91;100.00
37824;BME280;23667;43.246;26.576;2022-11-11T14:01:21;100840.69;;;10.69;100.00
37824;BME280;23667;43.246;26.576;2022-11-11T14:13:54;100848.50;;;10.71;100.00
37824;BME280;23667;43.246;26.576;2022-11-11T14:17:20;100847.72;;;10.60;100.00
37824;BME280;23667;43.246;26.576;2022-11-11T14:24:08;100859.94;;;10.56;100.00
37824;BME280;23667;43.246;26.576;2022-11-11T14:26:33;100859.00;;;10.63;100.00
37824;BME280;23667;43.246;26.576;2022-11-11T14:29:01;100859.91;;;10.58;100.00
37824;BME280;23667;43.246;26.576;2022-11-11T14:41:50;100857.28;;;10.62;100.00
37824;BME280;23667;43.246;26.576;2022-11-11T14:49:44;100859.16;;;10.43;100.00
37824;BME280;23667;43.246;26.576;2022-11-11T14:52:25;100865.91;;;10.67;100.00
37824;BME280;23667;43.246;26.576;2022-11-11T14:57:34;100866.81;;;10.68;100.00
37824;BME280;23667;43.246;26.576;2022-11-11T15:00:03;100872.06;;;10.59;100.00